createdAt,value
2018-05-11T00:00:05.263Z,72.20
2018-05-11T00:02:33.471Z,72.10
2018-05-11T00:05:00.945Z,72.10
2018-05-11T00:07:28.389Z,73.00
2018-05-11T00:09:55.841Z,74.20
2018-05-11T00:12:24.064Z,71.30
2018-05-11T00:14:51.502Z,71.30
2018-05-11T00:17:18.947Z,71.70
2018-05-11T00:19:46.385Z,70.90
2018-05-11T00:22:13.834Z,70.70
2018-05-11T00:24:41.278Z,71.30
2018-05-11T00:27:08.725Z,70.50
2018-05-11T00:29:36.183Z,69.70
2018-05-11T00:32:03.734Z,68.10
2018-05-11T00:34:31.173Z,68.10
2018-05-11T00:36:58.615Z,69.10
2018-05-11T00:39:26.069Z,68.70
2018-05-11T00:41:53.511Z,68.80
2018-05-11T00:44:20.958Z,67.50
2018-05-11T00:46:49.177Z,68.50
2018-05-11T00:49:16.631Z,68.40
2018-05-11T00:51:44.078Z,67.10
2018-05-11T00:54:11.539Z,68.10
2018-05-11T00:56:38.965Z,66.70
2018-05-11T00:59:06.428Z,68.80
2018-05-11T01:01:33.935Z,68.40
2018-05-11T01:04:01.411Z,67.80
2018-05-11T01:06:28.870Z,68.30
2018-05-11T01:08:57.079Z,70.20
2018-05-11T01:11:24.538Z,70.20
2018-05-11T01:13:52.000Z,69.80
2018-05-11T01:16:19.450Z,68.40
2018-05-11T01:18:47.648Z,68.50
2018-05-11T01:21:15.109Z,68.50
2018-05-11T01:23:42.550Z,68.00
2018-05-11T01:26:09.998Z,67.60
2018-05-11T01:28:37.445Z,67.00
2018-05-11T01:31:04.899Z,66.10
2018-05-11T01:33:32.333Z,66.60
2018-05-11T01:35:59.790Z,65.40
2018-05-11T01:38:27.247Z,65.70
2018-05-11T01:40:54.701Z,65.30
2018-05-11T01:43:22.135Z,65.60
2018-05-11T01:45:49.577Z,65.60
2018-05-11T01:48:17.037Z,64.60
2018-05-11T01:50:45.253Z,64.20
2018-05-11T01:53:12.708Z,64.20
2018-05-11T01:55:40.142Z,65.10
2018-05-11T01:58:07.591Z,66.10
2018-05-11T02:00:35.037Z,66.00
2018-05-11T02:03:02.484Z,64.90
2018-05-11T02:05:29.918Z,64.50
2018-05-11T02:07:57.368Z,64.80
2018-05-11T02:10:24.813Z,64.40
2018-05-11T02:12:52.268Z,65.10
2018-05-11T02:15:19.713Z,65.60
2018-05-11T02:17:47.150Z,65.80
2018-05-11T02:20:14.594Z,65.30
2018-05-11T02:22:42.059Z,64.80
2018-05-11T02:25:11.297Z,65.50
2018-05-11T02:27:38.742Z,65.60
2018-05-11T02:30:06.183Z,66.40
2018-05-11T02:32:33.625Z,65.90
2018-05-11T02:35:01.066Z,64.80
2018-05-11T02:37:28.515Z,64.70
2018-05-11T02:39:55.967Z,65.00
2018-05-11T02:42:23.417Z,65.70
2018-05-11T02:44:50.871Z,65.60
2018-05-11T02:47:19.075Z,64.50
2018-05-11T02:49:46.546Z,64.50
2018-05-11T02:52:13.984Z,64.70
2018-05-11T02:54:45.207Z,64.10
2018-05-11T02:57:12.630Z,65.00
2018-05-11T02:59:40.071Z,64.50
2018-05-11T03:02:07.509Z,63.80
2018-05-11T03:04:34.979Z,65.10
2018-05-11T03:07:02.418Z,64.80
2018-05-11T03:09:30.502Z,64.80
2018-05-11T03:11:57.943Z,63.90
2018-05-11T03:14:25.374Z,63.80
2018-05-11T03:16:52.825Z,63.60
2018-05-11T03:19:20.289Z,63.80
2018-05-11T03:21:48.505Z,63.80
2018-05-11T03:24:15.964Z,63.70
2018-05-11T03:26:43.405Z,63.80
2018-05-11T03:29:10.859Z,63.90
2018-05-11T03:31:38.345Z,63.60
2018-05-11T03:34:05.791Z,63.80
2018-05-11T03:36:33.249Z,64.30
2018-05-11T03:39:00.721Z,63.70
2018-05-11T03:41:28.167Z,64.80
2018-05-11T03:43:55.616Z,65.00
2018-05-11T03:46:23.085Z,64.90
2018-05-11T03:48:50.541Z,64.30
2018-05-11T03:51:17.994Z,64.90
2018-05-11T03:53:45.458Z,64.70
2018-05-11T03:56:12.903Z,65.50
2018-05-11T03:58:40.365Z,65.20
2018-05-11T04:01:19.872Z,64.50
2018-05-11T04:03:59.095Z,64.90
2018-05-11T04:09:31.950Z,65.20
2018-05-11T04:11:59.409Z,65.20
2018-05-11T04:14:26.862Z,65.40
2018-05-11T04:16:54.308Z,65.60
2018-05-11T04:19:21.770Z,65.80
2018-05-11T04:21:49.229Z,65.60
2018-05-11T04:24:16.680Z,65.30
2018-05-11T04:26:44.878Z,64.90
2018-05-11T04:29:12.326Z,64.90
2018-05-11T04:31:39.773Z,64.60
2018-05-11T04:34:07.254Z,63.90
2018-05-11T04:36:35.467Z,62.90
2018-05-11T04:39:02.902Z,62.80
2018-05-11T04:41:30.360Z,62.60
2018-05-11T04:43:57.816Z,61.70
2018-05-11T04:46:25.260Z,62.90
2018-05-11T04:48:52.701Z,62.90
2018-05-11T04:51:20.142Z,62.20
2018-05-11T04:53:47.881Z,62.40
2018-05-11T04:56:15.334Z,61.70
2018-05-11T04:58:42.770Z,61.80
2018-05-11T05:01:10.221Z,61.20
2018-05-11T05:03:37.662Z,62.10
2018-05-11T05:06:05.135Z,61.70
2018-05-11T05:08:33.361Z,61.20
2018-05-11T05:11:00.811Z,61.20
2018-05-11T05:13:28.251Z,61.40
2018-05-11T05:15:55.689Z,60.70
2018-05-11T05:18:23.190Z,61.20
2018-05-11T05:20:51.849Z,61.20
2018-05-11T05:23:20.078Z,60.90
2018-05-11T05:25:47.528Z,60.90
2018-05-11T05:28:15.007Z,59.60
2018-05-11T05:30:42.446Z,59.30
2018-05-11T05:33:09.943Z,58.80
2018-05-11T05:35:38.133Z,57.40
2018-05-11T05:38:06.330Z,57.40
2018-05-11T05:40:33.790Z,58.00
2018-05-11T05:43:01.258Z,57.20
2018-05-11T05:45:28.786Z,57.20
2018-05-11T05:47:56.149Z,56.70
2018-05-11T05:50:23.624Z,56.50
2018-05-11T05:52:51.839Z,59.00
2018-05-11T05:55:19.296Z,59.00
2018-05-11T05:57:46.798Z,56.60
2018-05-11T06:00:14.310Z,56.20
2018-05-11T06:02:42.522Z,56.20
2018-05-11T06:05:09.975Z,56.20
2018-05-11T06:07:38.237Z,55.40
2018-05-11T06:10:05.673Z,55.90
2018-05-11T06:12:33.110Z,55.00
2018-05-11T06:15:00.586Z,56.10
2018-05-11T06:17:28.793Z,56.80
2018-05-11T06:19:56.386Z,56.80
2018-05-11T06:22:23.843Z,56.60
2018-05-11T06:24:52.144Z,59.30
2018-05-11T06:27:19.510Z,59.30
2018-05-11T06:29:46.971Z,58.60
2018-05-11T06:32:14.423Z,58.50
2018-05-11T06:34:41.857Z,56.80
2018-05-11T06:37:09.308Z,57.00
2018-05-11T06:39:37.559Z,58.00
2018-05-11T06:42:05.554Z,57.40
2018-05-11T06:44:33.836Z,59.00
2018-05-11T06:47:01.320Z,58.50
2018-05-11T06:49:28.763Z,57.10
2018-05-11T06:51:56.227Z,56.20
2018-05-11T06:54:24.538Z,57.80
2018-05-11T06:56:51.982Z,57.80
2018-05-11T06:59:19.440Z,54.80
2018-05-11T07:01:46.958Z,55.10
2018-05-11T07:04:14.415Z,53.90
2018-05-11T07:06:41.867Z,51.70
2018-05-11T07:09:09.352Z,50.50
2018-05-11T07:11:37.577Z,47.80
2018-05-11T07:14:05.058Z,47.80
2018-05-11T07:16:32.521Z,46.50
2018-05-11T07:18:59.995Z,49.00
2018-05-11T07:21:27.455Z,50.10
2018-05-11T07:23:54.980Z,49.90
2018-05-11T07:26:22.434Z,52.40
2018-05-11T07:28:50.106Z,50.80
2018-05-11T07:31:17.563Z,49.60
2018-05-11T07:33:45.018Z,46.50
2018-05-11T07:36:13.247Z,44.40
2018-05-11T07:38:40.761Z,44.50
2018-05-11T07:41:08.214Z,45.40
2018-05-11T07:43:35.726Z,44.00
2018-05-11T07:46:03.196Z,43.70
2018-05-11T07:48:30.677Z,42.50
2018-05-11T07:50:58.916Z,40.60
2018-05-11T07:53:26.375Z,40.50
2018-05-11T07:55:53.822Z,38.10
2018-05-11T07:58:21.271Z,39.70
2018-05-11T08:00:49.504Z,41.80
2018-05-11T08:05:50.894Z,42.70
2018-05-11T08:08:18.378Z,42.50
2018-05-11T08:10:45.832Z,45.00
2018-05-11T08:13:13.277Z,43.70
2018-05-11T08:15:40.760Z,42.90
2018-05-11T08:18:08.975Z,45.50
2018-05-11T08:20:36.427Z,45.50
2018-05-11T08:23:03.895Z,45.00
2018-05-11T08:25:31.347Z,44.90
2018-05-11T08:27:58.807Z,44.70
2018-05-11T08:30:26.270Z,44.80
2018-05-11T08:32:53.694Z,40.90
2018-05-11T08:35:21.187Z,41.30
2018-05-11T08:37:48.637Z,40.10
2018-05-11T08:40:16.093Z,40.40
2018-05-11T08:42:44.374Z,40.40
2018-05-11T08:45:11.842Z,40.40
2018-05-11T08:47:39.316Z,41.00
2018-05-11T08:50:06.806Z,40.90
2018-05-11T08:52:35.007Z,44.10
2018-05-11T08:55:02.452Z,44.10
2018-05-11T08:57:29.934Z,44.10
2018-05-11T08:59:57.457Z,43.30
2018-05-11T09:02:25.019Z,43.90
2018-05-11T09:04:52.611Z,43.30
2018-05-11T09:07:20.059Z,42.50
2018-05-11T09:09:47.606Z,43.20
2018-05-11T09:12:15.048Z,43.00
2018-05-11T09:14:42.499Z,41.80
2018-05-11T09:17:09.971Z,43.70
2018-05-11T09:19:37.427Z,45.20
2018-05-11T09:22:04.893Z,45.20
2018-05-11T09:24:32.338Z,45.70
2018-05-11T09:26:59.800Z,45.10
2018-05-11T09:29:27.316Z,46.00
2018-05-11T09:31:54.935Z,46.60
2018-05-11T09:34:22.974Z,47.20
2018-05-11T09:36:50.439Z,47.10
2018-05-11T09:39:17.892Z,48.00
2018-05-11T09:41:46.102Z,47.40
2018-05-11T09:44:13.555Z,47.40
2018-05-11T09:46:41.014Z,46.70
2018-05-11T09:49:08.471Z,47.10
2018-05-11T09:51:36.069Z,46.70
2018-05-11T09:54:03.530Z,46.20
2018-05-11T09:56:30.994Z,46.60
2018-05-11T09:58:58.977Z,45.30
2018-05-11T10:01:26.452Z,45.20
2018-05-11T10:03:53.905Z,45.20
2018-05-11T10:06:21.346Z,44.50
2018-05-11T10:08:48.815Z,43.70
2018-05-11T10:11:16.285Z,44.80
2018-05-11T10:13:44.530Z,44.70
2018-05-11T10:16:11.986Z,44.50
2018-05-11T10:18:40.237Z,45.30
2018-05-11T10:21:07.693Z,45.20
2018-05-11T10:23:35.902Z,45.20
2018-05-11T10:26:03.403Z,45.10
2018-05-11T10:28:30.836Z,44.40
2018-05-11T10:30:59.083Z,45.00
2018-05-11T10:33:26.527Z,45.00
2018-05-11T10:35:53.986Z,45.50
2018-05-11T10:38:22.221Z,43.90
2018-05-11T10:40:49.675Z,43.80
2018-05-11T10:43:17.130Z,42.80
2018-05-11T10:45:44.616Z,43.40
2018-05-11T10:48:12.081Z,41.70
2018-05-11T10:50:39.538Z,42.20
2018-05-11T10:53:06.998Z,43.30
2018-05-11T10:55:35.211Z,41.70
2018-05-11T10:58:11.563Z,41.70
2018-05-11T11:00:39.009Z,42.40
2018-05-11T11:03:06.454Z,42.30
2018-05-11T11:05:33.922Z,42.20
2018-05-11T11:08:02.438Z,41.60
2018-05-11T11:10:29.889Z,41.90
2018-05-11T11:12:57.339Z,42.60
2018-05-11T11:15:24.797Z,43.40
2018-05-11T11:17:52.257Z,44.30
2018-05-11T11:20:19.845Z,42.70
2018-05-11T11:22:47.364Z,42.70
2018-05-11T11:25:15.901Z,41.80
2018-05-11T11:27:43.504Z,42.30
2018-05-11T11:30:12.414Z,43.50
2018-05-11T11:32:39.889Z,43.50
2018-05-11T11:35:07.330Z,43.70
2018-05-11T11:37:35.215Z,44.90
2018-05-11T11:40:03.420Z,44.80
2018-05-11T11:42:30.870Z,44.80
2018-05-11T11:44:58.358Z,45.70
2018-05-11T11:47:26.572Z,45.10
2018-05-11T11:52:27.848Z,43.80
2018-05-11T11:54:57.478Z,42.90
2018-05-11T11:57:25.035Z,43.70
2018-05-11T11:59:53.393Z,43.70
2018-05-11T12:02:20.849Z,43.80
2018-05-11T12:04:48.302Z,43.50
2018-05-11T12:07:15.730Z,43.50
2018-05-11T12:09:43.193Z,42.10
2018-05-11T12:12:10.668Z,42.50
2018-05-11T12:14:38.106Z,43.00
2018-05-11T12:17:06.328Z,43.30
2018-05-11T12:19:33.801Z,43.30
2018-05-11T12:22:02.011Z,43.60
2018-05-11T12:24:29.470Z,44.00
2018-05-11T12:26:56.909Z,43.90
2018-05-11T12:29:24.404Z,43.50
2018-05-11T12:31:52.612Z,44.50
2018-05-11T12:34:20.063Z,44.50
2018-05-11T12:36:47.646Z,44.70
2018-05-11T12:39:15.867Z,43.90
2018-05-11T12:41:43.305Z,43.10
2018-05-11T12:44:10.748Z,42.30
2018-05-11T12:46:38.267Z,41.70
2018-05-11T12:49:05.673Z,41.70
2018-05-11T12:51:33.122Z,42.40
2018-05-11T12:54:01.330Z,43.10
2018-05-11T12:56:28.778Z,43.00
2018-05-11T12:58:56.227Z,43.40
2018-05-11T13:01:23.682Z,42.80
2018-05-11T13:03:52.466Z,42.70
2018-05-11T13:06:19.920Z,42.80
2018-05-11T13:08:47.381Z,43.50
2018-05-11T13:11:15.590Z,43.10
2018-05-11T13:13:43.042Z,43.10
2018-05-11T13:16:11.291Z,42.90
2018-05-11T13:18:38.734Z,43.00
2018-05-11T13:21:06.938Z,43.30
2018-05-11T13:23:34.384Z,43.30
2018-05-11T13:26:02.606Z,43.00
2018-05-11T13:28:30.062Z,43.00
2018-05-11T13:30:57.534Z,43.20
2018-05-11T13:33:25.742Z,42.70
2018-05-11T13:35:53.209Z,42.70
2018-05-11T13:38:20.668Z,43.60
2018-05-11T13:40:48.127Z,43.70
2018-05-11T13:43:16.431Z,41.90
2018-05-11T13:45:44.951Z,41.90
2018-05-11T13:48:12.416Z,42.00
2018-05-11T13:50:39.870Z,42.60
2018-05-11T13:53:07.349Z,41.40
2018-05-11T13:55:34.803Z,41.90
2018-05-11T13:58:02.263Z,42.40
2018-05-11T14:00:30.502Z,42.00
2018-05-11T14:02:57.958Z,41.80
2018-05-11T14:05:26.175Z,41.20
2018-05-11T14:07:53.674Z,40.80
2018-05-11T14:10:23.456Z,40.90
2018-05-11T14:12:50.897Z,40.80
2018-05-11T14:15:18.350Z,41.40
2018-05-11T14:17:45.885Z,42.10
2018-05-11T14:20:13.311Z,41.60
2018-05-11T14:22:42.263Z,41.40
2018-05-11T14:25:09.716Z,41.20
2018-05-11T14:27:37.154Z,41.60
2018-05-11T14:30:04.702Z,41.40
2018-05-11T14:32:32.142Z,42.00
2018-05-11T14:34:59.601Z,41.50
2018-05-11T14:37:27.050Z,41.00
2018-05-11T14:39:54.518Z,41.20
2018-05-11T14:42:21.969Z,41.50
2018-05-11T14:44:50.186Z,41.10
2018-05-11T14:47:17.629Z,41.10
2018-05-11T14:49:45.237Z,41.20
2018-05-11T14:52:12.663Z,40.40
2018-05-11T14:54:40.893Z,40.80
2018-05-11T14:57:08.700Z,40.70
2018-05-11T14:59:36.138Z,41.10
2018-05-11T15:02:03.603Z,41.30
2018-05-11T15:04:31.120Z,41.20
2018-05-11T15:06:59.330Z,41.60
2018-05-11T15:09:26.790Z,42.30
2018-05-11T15:11:54.305Z,41.20
2018-05-11T15:14:21.739Z,42.50
2018-05-11T15:16:49.211Z,41.70
2018-05-11T15:19:16.657Z,41.40
2018-05-11T15:21:44.200Z,41.30
2018-05-11T15:24:11.634Z,41.60
2018-05-11T15:26:39.085Z,41.80
2018-05-11T15:29:06.534Z,41.50
2018-05-11T15:31:33.994Z,41.40
2018-05-11T15:34:02.195Z,41.70
2018-05-11T15:36:29.662Z,41.60
2018-05-11T15:38:57.102Z,41.10
2018-05-11T15:41:24.547Z,41.30
2018-05-11T15:43:52.009Z,42.50
2018-05-11T15:46:19.459Z,41.50
2018-05-11T15:48:47.698Z,41.70
2018-05-11T15:51:15.122Z,41.70
2018-05-11T15:53:42.619Z,41.40
2018-05-11T15:56:10.845Z,41.30
2018-05-11T15:58:38.293Z,41.20
2018-05-11T16:01:05.744Z,41.50
2018-05-11T16:03:33.199Z,41.60
2018-05-11T16:06:01.418Z,41.60
2018-05-11T16:08:28.890Z,41.50
2018-05-11T16:10:56.334Z,41.60
2018-05-11T16:13:23.800Z,41.40
2018-05-11T16:15:52.031Z,41.70
2018-05-11T16:18:19.502Z,41.70
2018-05-11T16:20:47.026Z,41.90
2018-05-11T16:23:14.566Z,41.20
2018-05-11T16:25:42.065Z,41.70
2018-05-11T16:28:09.518Z,41.10
2018-05-11T16:30:36.974Z,41.20
2018-05-11T16:33:04.438Z,40.90
2018-05-11T16:35:31.951Z,41.10
2018-05-11T16:37:59.414Z,41.00
2018-05-11T16:40:26.892Z,41.00
2018-05-11T16:42:54.319Z,41.60
2018-05-11T16:45:21.782Z,41.10
2018-05-11T16:47:50.071Z,41.70
2018-05-11T16:50:17.515Z,41.70
2018-05-11T16:52:44.977Z,41.70
2018-05-11T16:55:12.440Z,42.20
2018-05-11T16:57:39.882Z,42.50
2018-05-11T17:00:07.342Z,42.80
2018-05-11T17:02:34.805Z,42.80
2018-05-11T17:05:03.008Z,43.30
2018-05-11T17:07:30.491Z,43.30
2018-05-11T17:09:57.936Z,42.60
2018-05-11T17:12:26.163Z,42.30
2018-05-11T17:14:53.690Z,42.30
2018-05-11T17:17:21.127Z,42.30
2018-05-11T17:19:48.590Z,42.40
2018-05-11T17:22:16.043Z,42.00
2018-05-11T17:24:43.490Z,42.40
2018-05-11T17:27:10.967Z,42.80
2018-05-11T17:29:38.412Z,43.10
2018-05-11T17:32:06.641Z,44.20
2018-05-11T17:34:34.095Z,44.20
2018-05-11T17:37:01.552Z,44.50
2018-05-11T17:39:29.766Z,45.60
2018-05-11T17:41:57.227Z,45.60
2018-05-11T17:44:24.682Z,45.60
2018-05-11T17:46:52.121Z,45.40
2018-05-11T17:49:19.626Z,45.70
2018-05-11T17:51:47.067Z,45.60
2018-05-11T17:54:14.523Z,46.60
2018-05-11T17:56:41.961Z,47.50
2018-05-11T17:59:09.988Z,47.40
2018-05-11T18:01:37.427Z,47.30
2018-05-11T18:04:04.881Z,47.40
2018-05-11T18:06:32.326Z,47.50
2018-05-11T18:08:59.795Z,47.80
2018-05-11T18:11:27.238Z,48.20
2018-05-11T18:13:54.694Z,48.30
2018-05-11T18:16:22.139Z,48.20
2018-05-11T18:18:49.679Z,48.50
2018-05-11T18:21:17.138Z,48.70
2018-05-11T18:23:44.594Z,48.90
2018-05-11T18:26:12.796Z,49.10
2018-05-11T18:28:40.266Z,49.10
2018-05-11T18:31:07.726Z,49.30
2018-05-11T18:33:35.183Z,49.40
2018-05-11T18:36:03.406Z,49.70
2018-05-11T18:38:30.886Z,49.60
2018-05-11T18:40:59.095Z,50.50
2018-05-11T18:43:26.539Z,50.30
2018-05-11T18:45:54.009Z,50.30
2018-05-11T18:48:21.442Z,50.70
2018-05-11T18:50:48.912Z,51.50
2018-05-11T18:53:16.663Z,52.10
2018-05-11T18:55:43.830Z,52.50
2018-05-11T18:58:11.328Z,53.00
2018-05-11T19:00:38.777Z,53.20
2018-05-11T19:03:06.233Z,53.40
2018-05-11T19:05:33.678Z,53.60
2018-05-11T19:08:01.907Z,53.10
2018-05-11T19:10:29.399Z,53.10
2018-05-11T19:12:57.598Z,52.90
2018-05-11T19:15:25.043Z,52.90
2018-05-11T19:17:52.501Z,53.10
2018-05-11T19:20:19.947Z,53.00
2018-05-11T19:22:47.393Z,53.30
2018-05-11T19:25:14.905Z,53.20
2018-05-11T19:27:42.353Z,53.70
2018-05-11T19:30:09.792Z,54.10
2018-05-11T19:32:37.254Z,54.20
2018-05-11T19:35:04.704Z,54.50
2018-05-11T19:37:32.155Z,54.70
2018-05-11T19:39:59.613Z,55.00
2018-05-11T19:42:27.128Z,54.80
2018-05-11T19:44:54.502Z,54.80
2018-05-11T19:47:22.744Z,54.70
2018-05-11T19:49:50.216Z,54.60
2018-05-11T19:52:18.432Z,54.80
2018-05-11T19:54:45.889Z,54.80
2018-05-11T19:57:13.381Z,54.80
2018-05-11T19:59:41.566Z,54.60
2018-05-11T20:02:09.010Z,54.60
2018-05-11T20:04:36.538Z,54.80
2018-05-11T20:07:03.917Z,54.80
2018-05-11T20:09:31.451Z,55.00
2018-05-11T20:11:58.894Z,55.30
2018-05-11T20:14:26.395Z,55.30
2018-05-11T20:16:53.882Z,55.30
2018-05-11T20:19:21.328Z,55.50
2018-05-11T20:21:48.785Z,55.20
2018-05-11T20:24:16.251Z,55.30
2018-05-11T20:26:44.476Z,56.00
2018-05-11T20:29:11.930Z,56.00
2018-05-11T20:31:39.371Z,56.20
2018-05-11T20:34:06.837Z,56.20
2018-05-11T20:36:35.050Z,56.30
2018-05-11T20:39:02.510Z,56.30
2018-05-11T20:41:29.971Z,56.50
2018-05-11T20:43:57.444Z,56.50
2018-05-11T20:46:25.635Z,56.90
2018-05-11T20:48:53.094Z,56.90
2018-05-11T20:51:20.550Z,57.00
2018-05-11T20:53:47.996Z,57.30
2018-05-11T20:56:15.454Z,57.30
2018-05-11T20:58:43.695Z,57.50
2018-05-11T21:01:11.155Z,57.50
2018-05-11T21:03:39.370Z,57.50
2018-05-11T21:06:06.845Z,57.50
2018-05-11T21:08:34.286Z,57.50
2018-05-11T21:11:01.745Z,57.70
2018-05-11T21:13:29.965Z,58.00
2018-05-11T21:15:57.422Z,58.00
2018-05-11T21:18:24.878Z,58.40
2018-05-11T21:20:52.332Z,58.40
2018-05-11T21:23:19.771Z,58.40
2018-05-11T21:25:47.250Z,58.50
2018-05-11T21:28:14.723Z,59.60
2018-05-11T21:30:42.194Z,59.20
2018-05-11T21:33:09.631Z,59.20
2018-05-11T21:35:37.088Z,59.20
2018-05-11T21:38:04.547Z,59.00
2018-05-11T21:40:32.771Z,59.10
2018-05-11T21:43:00.293Z,59.10
2018-05-11T21:45:27.833Z,59.10
2018-05-11T21:47:55.312Z,59.40
2018-05-11T21:50:22.754Z,59.40
2018-05-11T21:52:50.228Z,59.60
2018-05-11T21:55:18.438Z,59.70
2018-05-11T21:57:45.908Z,59.70
2018-05-11T22:00:13.366Z,59.60
2018-05-11T22:02:41.591Z,60.20
2018-05-11T22:05:09.030Z,60.20
2018-05-11T22:07:36.483Z,60.20
2018-05-11T22:10:03.939Z,60.50
2018-05-11T22:12:31.394Z,60.60
2018-05-11T22:15:00.437Z,60.50
2018-05-11T22:17:27.866Z,60.50
2018-05-11T22:19:55.313Z,60.60
2018-05-11T22:22:22.770Z,60.40
2018-05-11T22:24:50.223Z,60.70
2018-05-11T22:27:17.674Z,60.80
2018-05-11T22:29:45.134Z,61.20
2018-05-11T22:32:13.335Z,62.50
2018-05-11T22:34:40.787Z,61.80
2018-05-11T22:37:09.245Z,61.90
2018-05-11T22:39:36.716Z,62.10
2018-05-11T22:42:04.170Z,63.00
2018-05-11T22:44:31.623Z,63.50
2018-05-11T22:46:59.079Z,63.80
2018-05-11T22:49:27.317Z,64.20
2018-05-11T22:51:54.769Z,64.20
2018-05-11T22:54:22.237Z,64.50
2018-05-11T22:56:50.446Z,64.60
2018-05-11T22:59:17.888Z,64.60
2018-05-11T23:01:46.104Z,65.10
2018-05-11T23:04:13.536Z,65.10
2018-05-11T23:06:41.770Z,65.90
2018-05-11T23:09:09.226Z,65.90
2018-05-11T23:11:36.739Z,65.90
2018-05-11T23:14:04.853Z,65.70
2018-05-11T23:16:32.318Z,66.50
2018-05-11T23:18:59.774Z,66.70
2018-05-11T23:21:27.231Z,66.60
2018-05-11T23:23:54.688Z,66.70
2018-05-11T23:26:22.150Z,66.60
2018-05-11T23:28:50.370Z,67.10
2018-05-11T23:31:17.893Z,67.10
2018-05-11T23:33:45.351Z,67.00
2018-05-11T23:36:12.818Z,67.10
2018-05-11T23:38:40.274Z,66.90
2018-05-11T23:41:07.750Z,67.20
2018-05-11T23:43:35.198Z,67.00
2018-05-11T23:46:02.681Z,66.80
2018-05-11T23:48:30.176Z,67.00
2018-05-11T23:50:58.417Z,67.80
2018-05-11T23:53:26.642Z,67.80
2018-05-11T23:55:54.085Z,67.70
2018-05-11T23:58:21.541Z,68.10
